Natividade da Serra, Brazil
Current Conditions -  °F | °C
As of 5:00 AM on Friday 24 Oct 2014 (Local Time) from SBSJ Reporting Station
Scattered Clouds Scattered Clouds  
Wind Chill: 64°   Ceiling: Unl
Heat Index: 64°   Visibility: 4mi
Dew Point: 59°   Wind: 7mph
Humidity: 83%   Direction: 30°NNE
Pressure: 30.03"   Gusts: NA
Location:  23.38°S, 45.44°W
Report Text: SBSJ 240700Z 03006KT 6000 SCT006 18/15 Q1017
Loading
Personal Weather Stations






























Interactive Weather Map
Tropical Storm Tracking
New forecast layout! Learn more

10-Day Weather Forecast

Advertisements
Track Severe Weather on mobile